Time;durP1;ratioP1;P1;durP2;ratioP2;P2;SDS_P1;SDS_P2;PMS_P1;PMS_P2;Temp;Humidity;BMP_temperature;BMP_pressure;BME280_temperature;BME280_humidity;BME280_pressure;Samples;Min_cycle;Max_cycle;Signal;HPM_P1;HPM_P2
2021/04/05 00:00:50;;;;;;;;;;;;;;;-0.81;100.00;93632.22;5095962;28;19920;-80
2021/04/05 00:03:15;;;;;;;;;;;;;;;-0.90;100.00;93638.13;5095775;28;20355;-81
2021/04/05 00:05:41;;;;;;;;;;;;;;;-0.80;100.00;93643.25;5095748;28;19920;-80
2021/04/05 00:08:07;;;;;;;;;;;;;;;-0.99;100.00;93634.63;5095602;28;19920;-81
2021/04/05 00:10:37;;;;;;;;;;;;;;;-1.01;100.00;93631.41;5095819;28;20286;-81
2021/04/05 00:13:06;;;;;;;;;;;;;;;-0.78;100.00;93637.06;5096010;28;19927;-81
2021/04/05 00:15:32;;;;;;;;;;;;;;;-0.64;100.00;93640.16;5095689;28;19943;-81
2021/04/05 00:17:58;;;;;;;;;;;;;;;-0.65;100.00;93641.09;5095420;28;20378;-80
2021/04/05 00:20:26;;;;;;;;;;;;;;;-0.61;100.00;93637.34;5095375;28;19927;-80
2021/04/05 00:22:52;;;;;;;;;;;;;;;-0.62;100.00;93640.84;5095423;28;19924;-80
2021/04/05 00:25:18;;;;;;;;;;;;;;;-0.79;100.00;93630.31;5095305;28;20427;-80
2021/04/05 00:27:44;;;;;;;;;;;;;;;-1.00;100.00;93612.53;5095222;28;19927;-80
2021/04/05 00:30:16;;;;;;;;;;;;;;;-0.87;100.00;93612.25;5095173;28;19926;-80
2021/04/05 00:32:42;;;;;;;;;;;;;;;-0.73;100.00;93612.78;5095110;28;19963;-81
2021/04/05 00:35:09;;;;;;;;;;;;;;;-0.73;100.00;93598.22;5095085;28;20264;-80
2021/04/05 00:37:34;;;;;;;;;;;;;;;-0.63;100.00;93593.09;5095315;28;19926;-80
2021/04/05 00:40:00;;;;;;;;;;;;;;;-0.61;100.00;93593.75;5095165;28;20286;-80
2021/04/05 00:42:26;;;;;;;;;;;;;;;-0.64;100.00;93594.03;5094969;28;20351;-81
2021/04/05 00:44:53;;;;;;;;;;;;;;;-0.65;100.00;93585.53;5094957;28;19967;-79
2021/04/05 00:47:20;;;;;;;;;;;;;;;-0.93;100.00;93577.75;5094945;28;19920;-81
2021/04/05 00:49:46;;;;;;;;;;;;;;;-1.22;100.00;93572.59;5094814;28;20018;-80
2021/04/05 00:52:12;;;;;;;;;;;;;;;-1.02;100.00;93568.28;5095002;28;19931;-80
2021/04/05 00:54:38;;;;;;;;;;;;;;;-1.01;100.00;93571.69;5094261;28;19927;-81
2021/04/05 00:57:05;;;;;;;;;;;;;;;-1.26;100.00;93580.72;5094669;28;20287;-80
2021/04/05 00:59:31;;;;;;;;;;;;;;;-1.36;100.00;93588.38;5094629;28;20286;-81
2021/04/05 01:01:58;;;;;;;;;;;;;;;-1.30;100.00;93585.25;5094019;28;19926;-82
2021/04/05 01:04:23;;;;;;;;;;;;;;;-1.23;100.00;93591.50;5094484;28;19920;-81
2021/04/05 01:06:49;;;;;;;;;;;;;;;-0.91;100.00;93584.50;5094611;28;20274;-81
2021/04/05 01:09:15;;;;;;;;;;;;;;;-0.90;100.00;93583.53;5094456;28;19923;-80
2021/04/05 01:11:41;;;;;;;;;;;;;;;-0.90;100.00;93575.84;5094533;28;19920;-80
2021/04/05 01:14:07;;;;;;;;;;;;;;;-0.91;100.00;93574.25;5094467;28;20006;-81
2021/04/05 01:16:33;;;;;;;;;;;;;;;-0.80;100.00;93567.22;5094658;28;20329;-81
2021/04/05 01:19:02;;;;;;;;;;;;;;;-0.73;100.00;93566.66;5094227;28;19927;-81
2021/04/05 01:21:30;;;;;;;;;;;;;;;-0.82;100.00;93563.97;5094177;28;20014;-80
2021/04/05 01:23:57;;;;;;;;;;;;;;;-0.69;100.00;93552.63;5094337;28;19931;-81
2021/04/05 01:26:23;;;;;;;;;;;;;;;-0.69;100.00;93552.63;5094304;28;19989;-80
2021/04/05 01:28:52;;;;;;;;;;;;;;;-0.69;100.00;93552.63;5094132;28;19924;-80
2021/04/05 01:31:18;;;;;;;;;;;;;;;-0.62;100.00;93543.44;5093877;28;20317;-80
2021/04/05 01:33:43;;;;;;;;;;;;;;;-0.58;100.00;93540.47;5094427;28;19923;-80
2021/04/05 01:36:11;;;;;;;;;;;;;;;-0.55;100.00;93544.47;5094467;28;20290;-78
2021/04/05 01:38:38;;;;;;;;;;;;;;;-0.53;100.00;93527.22;5093990;28;19927;-79
2021/04/05 01:41:06;;;;;;;;;;;;;;;-0.55;100.00;93518.84;5093907;28;19920;-78
2021/04/05 01:43:32;;;;;;;;;;;;;;;-0.76;100.00;93517.28;5093759;28;20424;-79
2021/04/05 01:45:59;;;;;;;;;;;;;;;-0.81;100.00;93509.22;5093756;28;20283;-79
2021/04/05 01:48:26;;;;;;;;;;;;;;;-0.85;100.00;93517.31;5094053;28;19920;-79
2021/04/05 01:50:57;;;;;;;;;;;;;;;-1.10;100.00;93519.50;5093716;28;20425;-79
2021/04/05 01:53:23;;;;;;;;;;;;;;;-1.28;100.00;93516.00;5093729;28;19927;-79
2021/04/05 01:55:48;;;;;;;;;;;;;;;-1.39;100.00;93520.31;5093759;28;19924;-79
2021/04/05 01:58:18;;;;;;;;;;;;;;;-1.43;100.00;93518.97;5093634;28;19920;-79
2021/04/05 02:00:45;;;;;;;;;;;;;;;-1.40;100.00;93511.03;5093548;28;19927;-79
2021/04/05 02:03:11;;;;;;;;;;;;;;;-1.21;100.00;93517.09;5093732;28;19955;-78
2021/04/05 02:05:37;;;;;;;;;;;;;;;-1.10;100.00;93518.69;5092680;28;19920;-80
2021/04/05 02:08:04;;;;;;;;;;;;;;;-1.22;100.00;93520.59;5093509;28;19934;-80
2021/04/05 02:10:30;;;;;;;;;;;;;;;-1.26;100.00;93514.94;5093504;28;19924;-79
2021/04/05 02:12:57;;;;;;;;;;;;;;;-1.26;100.00;93509.81;5093461;28;19978;-80
2021/04/05 02:15:25;;;;;;;;;;;;;;;-1.26;100.00;93498.75;5093677;28;19960;-79
2021/04/05 02:17:56;;;;;;;;;;;;;;;-1.29;100.00;93499.03;5093554;28;19923;-80
2021/04/05 02:20:22;;;;;;;;;;;;;;;-1.31;100.00;93499.16;5093455;28;19920;-80
2021/04/05 02:22:48;;;;;;;;;;;;;;;-1.38;100.00;93485.28;5093322;28;19920;-79
2021/04/05 02:25:15;;;;;;;;;;;;;;;-1.10;100.00;93478.50;5093370;28;20010;-79
2021/04/05 02:27:42;;;;;;;;;;;;;;;-0.83;100.00;93475.22;5093273;28;19927;-78
2021/04/05 02:30:08;;;;;;;;;;;;;;;-0.86;100.00;93470.38;5093534;28;20002;-80
2021/04/05 02:32:37;;;;;;;;;;;;;;;-1.01;100.00;93464.88;5092953;28;20278;-80
2021/04/05 02:35:03;;;;;;;;;;;;;;;-0.93;100.00;93453.97;5093385;28;19920;-79
2021/04/05 02:37:29;;;;;;;;;;;;;;;-1.01;100.00;93441.03;5093341;28;19920;-79
2021/04/05 02:39:55;;;;;;;;;;;;;;;-0.98;100.00;93438.19;5093297;28;19926;-79
2021/04/05 02:42:21;;;;;;;;;;;;;;;-0.68;100.00;93426.06;5093013;28;19924;-78
2021/04/05 02:44:47;;;;;;;;;;;;;;;-0.95;100.00;93428.47;5093165;28;19920;-79
2021/04/05 02:47:14;;;;;;;;;;;;;;;-0.97;100.00;93426.97;5093323;28;19934;-79
2021/04/05 02:49:40;;;;;;;;;;;;;;;-1.01;100.00;93438.47;5093262;28;19927;-79
2021/04/05 02:52:09;;;;;;;;;;;;;;;-1.29;100.00;93433.25;5093098;28;19931;-79
2021/04/05 02:54:35;;;;;;;;;;;;;;;-1.43;100.00;93439.63;5092962;28;19923;-79
2021/04/05 02:57:01;;;;;;;;;;;;;;;-1.45;100.00;93435.56;5093309;28;19927;-79
2021/04/05 02:59:27;;;;;;;;;;;;;;;-1.57;100.00;93427.22;5092758;28;19928;-80
2021/04/05 03:01:54;;;;;;;;;;;;;;;-1.74;100.00;93421.03;5093071;28;19926;-80
2021/04/05 03:04:21;;;;;;;;;;;;;;;-1.69;100.00;93421.44;5093105;28;19919;-80
2021/04/05 03:06:49;;;;;;;;;;;;;;;-1.52;100.00;93415.63;5093032;28;19946;-80
2021/04/05 03:09:15;;;;;;;;;;;;;;;-1.49;100.00;93415.34;5092890;28;19923;-80
2021/04/05 03:11:43;;;;;;;;;;;;;;;-1.20;100.00;93404.28;5092891;28;19981;-80
2021/04/05 03:14:10;;;;;;;;;;;;;;;-0.88;100.00;93405.66;5093139;28;20286;-79
2021/04/05 03:16:37;;;;;;;;;;;;;;;-0.79;100.00;93401.44;5093117;28;20378;-78
2021/04/05 03:19:03;;;;;;;;;;;;;;;-0.68;100.00;93390.19;5096711;28;19927;-79
2021/04/05 03:21:30;;;;;;;;;;;;;;;-0.59;100.00;93386.78;5096490;28;19920;-78
2021/04/05 03:23:59;;;;;;;;;;;;;;;-0.64;100.00;93386.41;5096536;28;20302;-77
2021/04/05 03:26:25;;;;;;;;;;;;;;;-0.70;100.00;93385.22;5096763;28;19927;-79
2021/04/05 03:28:51;;;;;;;;;;;;;;;-0.70;100.00;93387.78;5096607;28;20278;-79
2021/04/05 03:31:18;;;;;;;;;;;;;;;-1.04;100.00;93387.50;5096217;28;19920;-79
2021/04/05 03:33:45;;;;;;;;;;;;;;;-1.16;100.00;93385.13;5096353;28;19920;-77
2021/04/05 03:36:13;;;;;;;;;;;;;;;-0.97;100.00;93378.31;5096283;28;20436;-79
2021/04/05 03:38:38;;;;;;;;;;;;;;;-1.19;100.00;93382.81;5096004;28;19924;-79
2021/04/05 03:41:09;;;;;;;;;;;;;;;-1.27;100.00;93377.59;5096432;28;19973;-80
2021/04/05 03:43:37;;;;;;;;;;;;;;;-1.10;100.00;93380.38;5096204;28;20022;-78
2021/04/05 03:46:05;;;;;;;;;;;;;;;-1.16;100.00;93387.69;5096195;28;19924;-78
2021/04/05 03:48:35;;;;;;;;;;;;;;;-1.46;100.00;93377.66;5096103;28;19920;-79
2021/04/05 03:51:07;;;;;;;;;;;;;;;-1.53;100.00;93375.63;5095989;28;20359;-78
2021/04/05 03:53:35;;;;;;;;;;;;;;;-1.44;100.00;93376.56;5095856;28;19919;-79
2021/04/05 03:56:02;;;;;;;;;;;;;;;-1.20;100.00;93371.00;5096061;28;19927;-76
2021/04/05 03:58:31;;;;;;;;;;;;;;;-1.17;100.00;93357.88;5095904;28;19927;-76
2021/04/05 04:01:01;;;;;;;;;;;;;;;-1.09;100.00;93358.94;5095815;28;19927;-76
2021/04/05 04:03:34;;;;;;;;;;;;;;;-1.00;100.00;93350.41;5095688;28;19946;-79
2021/04/05 04:06:02;;;;;;;;;;;;;;;-0.96;100.00;93344.06;5095893;28;19920;-79
2021/04/05 04:08:33;;;;;;;;;;;;;;;-0.96;100.00;93336.38;5095763;28;19920;-77
2021/04/05 04:11:04;;;;;;;;;;;;;;;-0.90;100.00;93330.66;5095796;28;20011;-79
2021/04/05 04:13:33;;;;;;;;;;;;;;;-0.96;100.00;93321.81;5095687;28;19926;-77
2021/04/05 04:15:59;;;;;;;;;;;;;;;-0.75;100.00;93319.03;5095399;28;20424;-77
2021/04/05 04:18:26;;;;;;;;;;;;;;;-0.75;100.00;93311.34;5095699;28;19924;-77
2021/04/05 04:20:51;;;;;;;;;;;;;;;-0.99;100.00;93313.59;5095634;28;19924;-78
2021/04/05 04:23:17;;;;;;;;;;;;;;;-1.08;100.00;93311.88;5095422;28;20023;-78
2021/04/05 04:25:43;;;;;;;;;;;;;;;-1.10;100.00;93308.66;5095452;28;19920;-79
2021/04/05 04:28:13;;;;;;;;;;;;;;;-1.05;100.00;93306.47;5094655;28;19970;-78
2021/04/05 04:30:41;;;;;;;;;;;;;;;-0.94;100.00;93309.66;5095236;28;19919;-79
2021/04/05 04:33:08;;;;;;;;;;;;;;;-0.82;100.00;93312.03;5095125;28;20001;-79
2021/04/05 04:35:35;;;;;;;;;;;;;;;-0.88;100.00;93303.19;5095066;28;20374;-79
2021/04/05 04:38:01;;;;;;;;;;;;;;;-0.69;100.00;93307.38;5095254;28;19966;-80
2021/04/05 04:40:28;;;;;;;;;;;;;;;-0.76;100.00;93304.59;5095040;28;19920;-79
2021/04/05 04:42:55;;;;;;;;;;;;;;;-0.57;100.00;93300.28;5094817;28;19920;-80
2021/04/05 04:45:21;;;;;;;;;;;;;;;-0.47;100.00;93303.59;5094909;28;20386;-79
2021/04/05 04:47:50;;;;;;;;;;;;;;;-0.47;100.00;93289.97;5094863;28;19923;-80
2021/04/05 04:50:16;;;;;;;;;;;;;;;-0.57;100.00;93292.59;5094817;28;19920;-80
2021/04/05 04:52:42;;;;;;;;;;;;;;;-0.62;100.00;93298.16;5094878;28;19920;-80
2021/04/05 04:55:08;;;;;;;;;;;;;;;-0.62;100.00;93292.22;5094993;28;20410;-80
2021/04/05 04:57:34;;;;;;;;;;;;;;;-0.71;100.00;93290.53;5094672;28;19920;-79
2021/04/05 05:00:00;;;;;;;;;;;;;;;-0.71;100.00;93282.84;5094865;28;19920;-80
2021/04/05 05:02:26;;;;;;;;;;;;;;;-0.24;100.00;93280.09;5094274;28;19930;-81
2021/04/05 05:04:53;;;;;;;;;;;;;;;-0.33;100.00;93280.94;5094456;28;19967;-78
2021/04/05 05:07:20;;;;;;;;;;;;;;;-0.22;100.00;93278.16;5094617;28;19920;-80
2021/04/05 05:09:46;;;;;;;;;;;;;;;-0.20;100.00;93278.81;5094503;28;19920;-80
2021/04/05 05:12:12;;;;;;;;;;;;;;;-0.17;100.00;93280.31;5094387;28;20003;-80
2021/04/05 05:14:38;;;;;;;;;;;;;;;-0.20;100.00;93278.81;5094612;28;20277;-80
2021/04/05 05:17:06;;;;;;;;;;;;;;;-0.12;100.00;93267.84;5094548;28;19919;-79
2021/04/05 05:19:38;;;;;;;;;;;;;;;-0.06;100.00;93268.03;5094515;28;19920;-78
2021/04/05 05:22:05;;;;;;;;;;;;;;;0.10;100.00;93269.94;5094315;28;19927;-80
2021/04/05 05:24:32;;;;;;;;;;;;;;;0.07;100.00;93262.53;5094474;28;20363;-79
2021/04/05 05:26:58;;;;;;;;;;;;;;;0.03;100.00;93250.16;5094506;28;19924;-77
2021/04/05 05:29:24;;;;;;;;;;;;;;;0.13;100.00;93248.28;5094372;28;19984;-78
2021/04/05 05:31:50;;;;;;;;;;;;;;;0.57;100.00;93248.25;5094050;28;20007;-79
2021/04/05 05:34:18;;;;;;;;;;;;;;;0.74;100.00;93237.06;5094152;28;19970;-78
2021/04/05 05:36:46;;;;;;;;;;;;;;;0.95;100.00;93242.75;5094078;28;19920;-79
2021/04/05 05:39:14;;;;;;;;;;;;;;;1.21;99.54;93228.06;5093980;28;19924;-78
2021/04/05 05:41:52;;;;;;;;;;;;;;;1.44;97.41;93219.75;5093964;28;19920;-78
2021/04/05 05:44:23;;;;;;;;;;;;;;;1.73;94.32;93221.84;5093935;28;19920;-79
2021/04/05 05:46:51;;;;;;;;;;;;;;;1.93;92.25;93213.81;5093995;28;19920;-79
2021/04/05 05:49:24;;;;;;;;;;;;;;;2.10;91.69;93217.19;5093846;28;19920;-79
2021/04/05 05:52:02;;;;;;;;;;;;;;;2.24;90.57;93231.19;5093694;28;19920;-78
2021/04/05 05:54:36;;;;;;;;;;;;;;;2.55;88.95;93226.13;5093925;28;19923;-78
2021/04/05 05:57:06;;;;;;;;;;;;;;;3.16;82.62;93228.94;5093885;28;19923;-81
2021/04/05 05:59:46;;;;;;;;;;;;;;;3.44;79.56;93218.16;5093915;28;19920;-80
2021/04/05 06:02:23;;;;;;;;;;;;;;;4.06;76.13;93214.63;5093511;28;20011;-79
2021/04/05 06:04:57;;;;;;;;;;;;;;;4.17;75.49;93203.88;5093790;28;19986;-80
2021/04/05 06:07:27;;;;;;;;;;;;;;;4.21;75.78;93215.50;5093771;28;19920;-80
2021/04/05 06:10:07;;;;;;;;;;;;;;;4.24;77.26;93193.66;5093515;28;20366;-79
2021/04/05 06:12:40;;;;;;;;;;;;;;;4.26;75.86;93192.50;5093476;28;19920;-80
2021/04/05 06:15:13;;;;;;;;;;;;;;;4.46;73.18;93189.38;5093655;28;19974;-80
2021/04/05 06:17:45;;;;;;;;;;;;;;;4.52;74.45;93187.88;5093625;28;19920;-80
2021/04/05 06:20:16;;;;;;;;;;;;;;;4.74;72.91;93183.59;5093396;28;20370;-80
2021/04/05 06:22:51;;;;;;;;;;;;;;;4.91;71.94;93179.84;5093545;28;19980;-80
2021/04/05 06:25:23;;;;;;;;;;;;;;;5.08;71.66;93170.09;5093340;28;20282;-80
2021/04/05 06:27:52;;;;;;;;;;;;;;;5.22;71.94;93181.38;5093546;28;20010;-79
2021/04/05 06:30:30;;;;;;;;;;;;;;;5.34;71.59;93173.94;5093351;28;19920;-78
2021/04/05 06:33:05;;;;;;;;;;;;;;;5.56;71.94;93167.81;5092997;28;20270;-79
2021/04/05 06:35:37;;;;;;;;;;;;;;;5.88;68.33;93176.03;5093293;28;20367;-79
2021/04/05 06:38:05;;;;;;;;;;;;;;;6.12;67.90;93176.66;5093528;28;19920;-79
2021/04/05 06:40:35;;;;;;;;;;;;;;;6.25;68.26;93170.78;5093387;28;19969;-79
2021/04/05 06:43:21;;;;;;;;;;;;;;;6.48;65.81;93170.53;5093218;28;19920;-80
2021/04/05 06:45:56;;;;;;;;;;;;;;;6.60;67.20;93163.03;5093228;28;19930;-78
2021/04/05 06:48:30;;;;;;;;;;;;;;;6.78;66.12;93154.75;5093388;28;19973;-79
2021/04/05 06:51:03;;;;;;;;;;;;;;;6.92;64.11;93158.19;5093284;28;19924;-78
2021/04/05 06:53:45;;;;;;;;;;;;;;;7.22;65.06;93145.72;5096646;28;19920;-78
2021/04/05 06:56:20;;;;;;;;;;;;;;;7.61;62.24;93146.81;5096556;28;20362;-79
2021/04/05 06:58:56;;;;;;;;;;;;;;;7.82;61.55;93134.63;5097359;28;20393;-78
2021/04/05 07:01:35;;;;;;;;;;;;;;;7.85;60.81;93129.81;5097164;28;19920;-79
2021/04/05 07:04:11;;;;;;;;;;;;;;;7.99;59.88;93122.03;5097036;28;19919;-78
2021/04/05 07:06:49;;;;;;;;;;;;;;;8.12;60.40;93120.22;5096885;28;19924;-79
2021/04/05 07:09:19;;;;;;;;;;;;;;;8.25;61.05;93123.81;5096916;28;19927;-78
2021/04/05 07:11:51;;;;;;;;;;;;;;;8.39;57.67;93107.16;5096804;28;20366;-79
2021/04/05 07:14:27;;;;;;;;;;;;;;;8.34;58.64;93112.19;5096872;28;19931;-79
2021/04/05 07:16:57;;;;;;;;;;;;;;;8.38;56.99;93116.00;5096682;28;20351;-78
2021/04/05 07:19:42;;;;;;;;;;;;;;;8.49;57.29;93101.56;5096569;28;20394;-79
2021/04/05 07:22:14;;;;;;;;;;;;;;;8.57;56.64;93092.75;5096737;28;19920;-79
2021/04/05 07:24:46;;;;;;;;;;;;;;;8.66;54.96;93088.91;5096718;28;19955;-79
2021/04/05 07:27:14;;;;;;;;;;;;;;;8.65;55.35;93087.31;5096625;28;20052;-79
2021/04/05 07:29:48;;;;;;;;;;;;;;;8.58;56.57;93086.56;5096406;28;19927;-77
2021/04/05 07:32:22;;;;;;;;;;;;;;;8.81;56.25;93086.06;5096364;28;19920;-77
2021/04/05 07:34:54;;;;;;;;;;;;;;;8.98;59.35;93081.19;5096515;28;19954;-76
2021/04/05 07:37:24;;;;;;;;;;;;;;;9.29;55.65;93083.00;5096422;28;19981;-76
2021/04/05 07:39:53;;;;;;;;;;;;;;;9.32;54.63;93089.63;5096427;28;19927;-77
2021/04/05 07:42:23;;;;;;;;;;;;;;;9.30;55.20;93094.25;5096034;28;19920;-80
2021/04/05 07:44:54;;;;;;;;;;;;;;;9.25;55.19;93098.25;5096212;28;20382;-77
2021/04/05 07:47:28;;;;;;;;;;;;;;;9.70;54.99;93089.56;5096157;28;20321;-75
2021/04/05 07:49:58;;;;;;;;;;;;;;;10.11;52.56;93077.00;5096175;28;19920;-75
2021/04/05 07:52:27;;;;;;;;;;;;;;;10.15;52.21;93076.34;5096065;28;19920;-76
2021/04/05 07:54:53;;;;;;;;;;;;;;;9.97;53.33;93074.50;5095903;28;19930;-74
2021/04/05 07:57:37;;;;;;;;;;;;;;;10.33;51.93;93078.22;5096149;28;19920;-75
2021/04/05 08:00:11;;;;;;;;;;;;;;;9.73;53.92;93072.72;5095640;28;19920;-76
2021/04/05 08:02:47;;;;;;;;;;;;;;;9.77;54.46;93073.88;5095822;28;19920;-77
2021/04/05 08:05:17;;;;;;;;;;;;;;;9.47;54.63;93090.13;5095818;28;19975;-76
2021/04/05 08:07:51;;;;;;;;;;;;;;;9.44;54.13;93080.13;5095853;28;20292;-77
2021/04/05 08:10:19;;;;;;;;;;;;;;;9.70;55.00;93080.97;5095851;28;19920;-77
2021/04/05 08:12:50;;;;;;;;;;;;;;;9.78;53.41;93086.69;5095608;28;20424;-74
2021/04/05 08:15:27;;;;;;;;;;;;;;;9.85;55.40;93091.06;5095653;28;20076;-77
2021/04/05 08:17:57;;;;;;;;;;;;;;;9.77;55.46;93089.50;5095535;28;20363;-77
2021/04/05 08:20:25;;;;;;;;;;;;;;;9.60;54.16;93092.63;5095894;28;19924;-77
2021/04/05 08:22:54;;;;;;;;;;;;;;;9.71;55.72;93091.16;5095499;28;20026;-77
2021/04/05 08:25:27;;;;;;;;;;;;;;;9.63;53.33;93094.81;5095497;28;19920;-76
2021/04/05 08:27:57;;;;;;;;;;;;;;;9.49;54.84;93088.09;5095517;28;20019;-76
2021/04/05 08:30:28;;;;;;;;;;;;;;;9.82;55.42;93089.66;5095790;28;19920;-76
2021/04/05 08:33:02;;;;;;;;;;;;;;;9.81;54.69;93090.69;5095216;28;19927;-77
2021/04/05 08:35:35;;;;;;;;;;;;;;;9.74;54.19;93080.31;5095324;28;20001;-77
2021/04/05 08:38:07;;;;;;;;;;;;;;;9.84;55.41;93087.66;5095249;28;19920;-77
2021/04/05 08:40:38;;;;;;;;;;;;;;;9.91;54.57;93085.81;5095081;28;20073;-77
2021/04/05 08:43:22;;;;;;;;;;;;;;;9.98;58.10;93086.53;5095011;28;19920;-76
2021/04/05 08:45:50;;;;;;;;;;;;;;;10.21;58.01;93082.53;5095111;28;20275;-75
2021/04/05 08:48:17;;;;;;;;;;;;;;;10.08;55.58;93070.41;5094883;28;19920;-76
2021/04/05 08:50:44;;;;;;;;;;;;;;;9.95;55.74;93071.31;5094391;28;19963;-77
2021/04/05 08:53:11;;;;;;;;;;;;;;;9.84;56.56;93063.41;5094782;28;19920;-76
2021/04/05 08:55:38;;;;;;;;;;;;;;;10.32;54.25;93071.41;5095018;28;19920;-77
2021/04/05 08:58:06;;;;;;;;;;;;;;;10.08;54.98;93074.84;5094956;28;19926;-77
2021/04/05 09:00:33;;;;;;;;;;;;;;;9.62;56.63;93067.16;5094869;28;19927;-78
2021/04/05 09:03:07;;;;;;;;;;;;;;;9.62;58.66;93053.34;5094671;28;19979;-77
2021/04/05 09:05:36;;;;;;;;;;;;;;;9.98;55.64;93055.25;5094565;28;20019;-78
2021/04/05 09:08:03;;;;;;;;;;;;;;;9.77;57.26;93053.03;5094804;28;19923;-76
2021/04/05 09:10:30;;;;;;;;;;;;;;;10.00;57.15;93042.78;5094680;28;19921;-77
2021/04/05 09:12:57;;;;;;;;;;;;;;;10.29;57.56;93031.88;5094978;28;19924;-77
2021/04/05 09:15:38;;;;;;;;;;;;;;;10.45;54.59;93035.75;5093850;28;20374;-77
2021/04/05 09:18:13;;;;;;;;;;;;;;;10.27;55.71;93026.88;5094372;28;19919;-77
2021/04/05 09:20:48;;;;;;;;;;;;;;;10.37;55.31;93023.78;5094060;28;20014;-77
2021/04/05 09:23:25;;;;;;;;;;;;;;;10.21;54.36;93037.38;5094362;28;20308;-77
2021/04/05 09:26:08;;;;;;;;;;;;;;;10.15;53.76;93034.63;5094370;28;19920;-78
2021/04/05 09:28:52;;;;;;;;;;;;;;;10.11;53.74;93036.06;5094109;28;20295;-74
2021/04/05 09:31:29;;;;;;;;;;;;;;;9.87;54.43;93032.47;5093974;28;20006;-77
2021/04/05 09:34:09;;;;;;;;;;;;;;;10.08;55.58;93033.91;5094223;28;19920;-76
2021/04/05 09:36:46;;;;;;;;;;;;;;;9.86;56.69;93032.69;5094097;28;19927;-74
2021/04/05 09:39:32;;;;;;;;;;;;;;;9.58;55.34;93029.50;5094335;28;20042;-77
2021/04/05 09:42:21;;;;;;;;;;;;;;;9.57;58.05;93029.72;5094069;28;19923;-76
2021/04/05 09:45:03;;;;;;;;;;;;;;;9.76;56.94;93020.94;5093947;28;20359;-76
2021/04/05 09:47:40;;;;;;;;;;;;;;;9.98;56.30;93018.75;5094207;28;19920;-75
2021/04/05 09:50:09;;;;;;;;;;;;;;;10.07;55.55;93015.84;5093969;28;19920;-75
2021/04/05 09:52:56;;;;;;;;;;;;;;;9.99;53.87;93009.09;5093731;28;20014;-75
2021/04/05 09:55:25;;;;;;;;;;;;;;;10.25;56.23;93018.47;5093994;28;19920;-76
2021/04/05 09:57:53;;;;;;;;;;;;;;;10.31;52.40;93011.59;5093607;28;19920;-77
2021/04/05 10:00:21;;;;;;;;;;;;;;;9.98;52.63;93018.75;5093872;28;19923;-76
2021/04/05 10:02:49;;;;;;;;;;;;;;;9.94;54.28;93012.38;5093643;28;19923;-75
2021/04/05 10:05:16;;;;;;;;;;;;;;;10.00;52.33;93005.50;5093624;28;19920;-76
2021/04/05 10:07:44;;;;;;;;;;;;;;;10.14;52.21;93014.78;5093593;28;19920;-76
2021/04/05 10:10:12;;;;;;;;;;;;;;;10.02;51.72;92998.25;5093472;28;19920;-76
2021/04/05 10:12:39;;;;;;;;;;;;;;;10.02;52.91;93000.84;5093675;28;19920;-76
2021/04/05 10:15:06;;;;;;;;;;;;;;;10.17;52.70;93000.50;5093711;28;19927;-77
2021/04/05 10:17:32;;;;;;;;;;;;;;;9.82;50.79;93006.25;5093536;28;19920;-76
2021/04/05 10:20:02;;;;;;;;;;;;;;;9.89;50.32;93008.78;5093162;28;19959;-75
2021/04/05 10:22:39;;;;;;;;;;;;;;;9.79;49.92;92989.25;5093288;28;19974;-76
2021/04/05 10:25:06;;;;;;;;;;;;;;;9.79;51.88;93004.06;5093596;28;19974;-76
2021/04/05 10:27:32;;;;;;;;;;;;;;;9.76;51.98;92988.88;5095450;28;19920;-75
2021/04/05 10:30:01;;;;;;;;;;;;;;;9.85;51.17;92978.97;5097705;28;19964;-76
2021/04/05 10:32:28;;;;;;;;;;;;;;;10.07;51.73;92974.13;5093888;28;19929;-77
2021/04/05 10:34:55;;;;;;;;;;;;;;;10.22;49.83;92969.34;5097448;28;19920;-76
2021/04/05 10:37:22;;;;;;;;;;;;;;;10.43;50.29;92962.13;5097253;28;19920;-75
2021/04/05 10:39:51;;;;;;;;;;;;;;;10.23;50.67;92957.91;5097423;28;20030;-76
2021/04/05 10:42:25;;;;;;;;;;;;;;;10.14;49.06;92960.00;5081434;28;20333;-77
2021/04/05 10:44:58;;;;;;;;;;;;;;;9.84;49.83;92953.91;5076755;28;19928;-77
2021/04/05 10:47:29;;;;;;;;;;;;;;;9.84;49.64;92949.47;5088049;28;20054;-76
2021/04/05 10:49:56;;;;;;;;;;;;;;;10.05;46.59;92955.28;5094698;28;19926;-77
2021/04/05 10:52:23;;;;;;;;;;;;;;;10.07;47.80;92946.22;5077013;28;19977;-76
2021/04/05 10:54:50;;;;;;;;;;;;;;;10.20;47.54;92942.69;5076590;28;19920;-75
2021/04/05 10:57:18;;;;;;;;;;;;;;;10.38;48.41;92930.69;5077718;28;19931;-76
2021/04/05 10:59:45;;;;;;;;;;;;;;;10.41;47.89;92917.16;5096887;28;20325;-76
2021/04/05 11:02:15;;;;;;;;;;;;;;;10.51;47.70;92922.69;5096596;28;19924;-76
2021/04/05 11:04:46;;;;;;;;;;;;;;;10.60;49.30;92916.13;5096854;28;19974;-77
2021/04/05 11:07:12;;;;;;;;;;;;;;;10.61;50.09;92916.91;5097025;28;19920;-77
2021/04/05 11:09:40;;;;;;;;;;;;;;;10.91;47.99;92915.06;5096896;28;19920;-75
2021/04/05 11:12:07;;;;;;;;;;;;;;;10.84;48.89;92910.97;5096908;28;19975;-77
2021/04/05 11:14:33;;;;;;;;;;;;;;;10.76;48.66;92903.44;5096517;28;20381;-78
2021/04/05 11:17:01;;;;;;;;;;;;;;;10.48;48.86;92910.06;5096734;28;19920;-78
2021/04/05 11:19:30;;;;;;;;;;;;;;;10.72;48.92;92892.66;5096455;28;19931;-79
2021/04/05 11:21:58;;;;;;;;;;;;;;;10.83;49.10;92899.72;5096678;28;19920;-77
2021/04/05 11:24:28;;;;;;;;;;;;;;;11.21;49.68;92901.16;5096084;28;19924;-77
2021/04/05 11:26:55;;;;;;;;;;;;;;;11.59;48.53;92906.94;5096547;28;19920;-76
2021/04/05 11:29:22;;;;;;;;;;;;;;;11.38;46.93;92890.81;5096407;28;19920;-79
2021/04/05 11:31:49;;;;;;;;;;;;;;;11.37;48.13;92889.22;5096061;28;20378;-77
2021/04/05 11:34:15;;;;;;;;;;;;;;;11.31;49.11;92884.94;5096454;28;20325;-77
2021/04/05 11:36:42;;;;;;;;;;;;;;;11.62;48.73;92885.59;5096092;28;20359;-79
2021/04/05 11:39:10;;;;;;;;;;;;;;;11.83;44.86;92890.22;5095887;28;19920;-79
2021/04/05 11:41:36;;;;;;;;;;;;;;;12.06;44.11;92891.25;5096127;28;19927;-78
2021/04/05 11:44:03;;;;;;;;;;;;;;;12.23;46.50;92880.84;5095976;28;19931;-77
2021/04/05 11:46:30;;;;;;;;;;;;;;;12.39;45.51;92884.56;5096225;28;19966;-77
2021/04/05 11:49:03;;;;;;;;;;;;;;;12.20;39.97;92882.09;5096083;28;19960;-77
2021/04/05 11:51:35;;;;;;;;;;;;;;;12.11;39.07;92887.94;5096070;28;19920;-78
2021/04/05 11:54:02;;;;;;;;;;;;;;;11.84;36.79;92864.88;5096019;28;19920;-76
2021/04/05 11:56:29;;;;;;;;;;;;;;;11.44;38.10;92871.63;5095686;28;19966;-75
2021/04/05 11:59:01;;;;;;;;;;;;;;;11.69;36.59;92880.25;5096005;28;19927;-77
2021/04/05 12:01:31;;;;;;;;;;;;;;;11.42;37.84;92870.25;5095544;28;20527;-77
2021/04/05 12:03:59;;;;;;;;;;;;;;;11.71;37.12;92867.72;5095741;28;19930;-75
2021/04/05 12:06:34;;;;;;;;;;;;;;;12.00;38.04;92861.56;5095151;28;19920;-75
2021/04/05 12:09:02;;;;;;;;;;;;;;;12.28;38.37;92853.97;5094520;28;19920;-76
2021/04/05 12:11:31;;;;;;;;;;;;;;;12.03;37.80;92862.94;5095667;28;19920;-76
2021/04/05 12:14:06;;;;;;;;;;;;;;;12.52;35.84;92868.56;5095600;28;19962;-75
2021/04/05 12:16:33;;;;;;;;;;;;;;;12.71;35.60;92866.53;5095554;28;20397;-76
2021/04/05 12:18:59;;;;;;;;;;;;;;;12.56;35.92;92868.88;5095462;28;19920;-77
2021/04/05 12:21:26;;;;;;;;;;;;;;;12.01;37.91;92865.78;5095420;28;20006;-75
2021/04/05 12:23:56;;;;;;;;;;;;;;;12.06;37.53;92874.72;5095482;28;19920;-75
2021/04/05 12:26:23;;;;;;;;;;;;;;;12.16;38.44;92872.34;5095417;28;19927;-77
2021/04/05 12:28:52;;;;;;;;;;;;;;;11.72;39.15;92869.31;5095368;28;19920;-76
2021/04/05 12:31:22;;;;;;;;;;;;;;;11.99;39.00;92865.22;5095073;28;20263;-76
2021/04/05 12:33:50;;;;;;;;;;;;;;;11.70;38.55;92872.16;5095016;28;19920;-76
2021/04/05 12:36:16;;;;;;;;;;;;;;;12.05;38.49;92875.78;5095368;28;19924;-76
2021/04/05 12:38:44;;;;;;;;;;;;;;;11.26;40.04;92882.19;5095179;28;19942;-76
2021/04/05 12:41:10;;;;;;;;;;;;;;;11.19;40.57;92871.03;5094931;28;19955;-77
2021/04/05 12:43:37;;;;;;;;;;;;;;;10.72;41.80;92885.63;5094634;28;19934;-77
2021/04/05 12:46:10;;;;;;;;;;;;;;;10.18;42.79;92888.13;5094330;28;19967;-77
2021/04/05 12:48:37;;;;;;;;;;;;;;;10.13;43.11;92877.56;5095211;28;19920;-76
2021/04/05 12:51:06;;;;;;;;;;;;;;;10.29;42.89;92889.19;5094257;28;19927;-78
2021/04/05 12:53:35;;;;;;;;;;;;;;;10.07;43.86;92875.81;5094511;28;19960;-80
2021/04/05 12:56:01;;;;;;;;;;;;;;;10.08;44.58;92884.44;5074434;28;19921;-79